createdAt,value
2023-03-23T15:59:24.622Z,1.43
2023-03-23T16:01:51.668Z,1.40
2023-03-23T16:04:19.773Z,1.63
2023-03-23T16:06:46.819Z,1.13
2023-03-23T16:09:18.905Z,1.90
2023-03-23T16:11:45.682Z,1.30
2023-03-23T16:14:13.834Z,1.60
2023-03-23T16:16:50.280Z,1.60
2023-03-23T16:19:18.110Z,1.33
2023-03-23T16:21:44.956Z,1.30
2023-03-23T16:24:12.127Z,1.37
2023-03-23T16:26:40.845Z,1.23
2023-03-23T16:29:28.432Z,1.60
2023-03-23T16:32:02.761Z,1.57
2023-03-23T16:34:33.030Z,1.47
2023-03-23T16:37:02.527Z,1.43
2023-03-23T16:39:29.261Z,1.60
2023-03-23T16:41:59.042Z,1.30
2023-03-23T16:44:26.084Z,1.63
2023-03-23T16:46:52.824Z,1.20
2023-03-23T16:49:22.495Z,1.30
2023-03-23T16:51:49.258Z,1.37
2023-03-23T16:54:16.358Z,1.20
2023-03-23T16:56:46.777Z,1.43
2023-03-23T16:59:14.233Z,1.47
2023-03-23T17:01:43.135Z,1.77
2023-03-23T17:04:10.104Z,2.10
2023-03-23T17:06:37.354Z,1.30
2023-03-23T17:09:04.201Z,1.40
2023-03-23T17:11:31.005Z,1.83
2023-03-23T17:13:57.808Z,1.30
2023-03-23T17:16:27.454Z,1.70
2023-03-23T17:18:54.294Z,1.90
2023-03-23T17:21:25.546Z,1.80
2023-03-23T17:23:52.624Z,1.60
2023-03-23T17:26:19.410Z,2.03
2023-03-23T17:28:46.277Z,1.53
2023-03-23T17:31:18.742Z,1.40
2023-03-23T17:33:45.768Z,1.60
2023-03-23T17:36:12.665Z,1.67
2023-03-23T17:38:39.460Z,2.47
2023-03-23T17:41:08.176Z,2.17
2023-03-23T17:43:36.221Z,2.27
2023-03-23T17:46:03.253Z,2.27
2023-03-23T17:48:30.015Z,2.37
2023-03-23T17:51:01.223Z,2.20
2023-03-23T17:53:29.933Z,2.50
2023-03-23T17:55:57.963Z,1.97
2023-03-23T17:58:26.950Z,2.60
2023-03-23T18:00:58.133Z,2.60
2023-03-23T18:03:26.072Z,2.20
2023-03-23T18:06:02.434Z,2.80
2023-03-23T18:08:29.988Z,2.67
2023-03-23T18:10:58.604Z,1.97
2023-03-23T18:13:27.228Z,2.00
2023-03-23T18:15:57.800Z,2.17
2023-03-23T18:18:26.034Z,2.27
2023-03-23T18:21:13.059Z,2.10
2023-03-23T18:23:49.037Z,2.13
2023-03-23T18:26:16.928Z,2.40
2023-03-23T18:28:44.038Z,2.00
2023-03-23T18:31:14.523Z,3.13
2023-03-23T18:33:45.007Z,2.40
2023-03-23T18:36:12.585Z,2.17
2023-03-23T18:38:39.659Z,2.10
2023-03-23T18:41:10.404Z,2.67
2023-03-23T18:43:40.273Z,2.90
2023-03-23T18:46:08.127Z,2.83
2023-03-23T18:48:36.210Z,3.10
2023-03-23T18:51:03.237Z,2.67
2023-03-23T18:53:31.199Z,2.27
2023-03-23T18:56:06.041Z,2.50
2023-03-23T18:58:32.886Z,2.13
2023-03-23T19:01:06.720Z,2.40
2023-03-23T19:03:35.543Z,2.60
2023-03-23T19:06:06.832Z,2.23
2023-03-23T19:08:34.870Z,2.40
2023-03-23T19:11:04.458Z,2.17
2023-03-23T19:13:37.533Z,2.30
2023-03-23T19:16:05.939Z,2.07
2023-03-23T19:18:33.200Z,2.50
2023-03-23T19:23:30.584Z,2.10
2023-03-23T19:25:57.583Z,2.60
2023-03-23T19:29:03.801Z,2.13
2023-03-23T19:31:11.705Z,2.20
2023-03-23T19:33:40.289Z,2.20
2023-03-23T19:36:11.720Z,2.13
2023-03-23T19:38:40.008Z,2.17
2023-03-23T19:41:07.044Z,2.30
2023-03-23T19:43:34.157Z,2.30
2023-03-23T19:46:01.028Z,1.90
2023-03-23T19:48:28.823Z,1.73
2023-03-23T19:50:56.362Z,2.53
2023-03-23T19:53:23.445Z,2.13
2023-03-23T19:55:51.248Z,2.33
2023-03-23T19:58:18.323Z,2.03
2023-03-23T20:00:45.834Z,2.57
2023-03-23T20:03:16.783Z,2.10
2023-03-23T20:05:51.854Z,2.20
2023-03-23T20:08:18.605Z,2.20
2023-03-23T20:10:45.485Z,2.10
2023-03-23T20:13:13.418Z,2.20
2023-03-23T20:15:40.399Z,2.27
2023-03-23T20:18:07.327Z,2.63
2023-03-23T20:20:36.601Z,2.20
2023-03-23T20:23:04.464Z,2.30
2023-03-23T20:25:34.440Z,2.27
2023-03-23T20:28:01.815Z,2.63
2023-03-23T20:30:30.992Z,2.83
2023-03-23T20:33:00.508Z,2.20
2023-03-23T20:35:29.361Z,2.50
2023-03-23T20:37:56.095Z,2.63
2023-03-23T20:40:22.938Z,2.33
2023-03-23T20:42:49.910Z,2.40
2023-03-23T20:45:18.498Z,2.20
2023-03-23T20:47:50.985Z,2.50
2023-03-23T20:50:18.565Z,2.43
2023-03-23T20:52:45.272Z,2.43
2023-03-23T20:55:12.091Z,2.20
2023-03-23T20:57:40.278Z,2.50
2023-03-23T21:00:09.511Z,3.00
2023-03-23T21:02:36.431Z,1.97
2023-03-23T21:05:04.494Z,2.30
2023-03-23T21:07:31.573Z,2.67
2023-03-23T21:09:58.436Z,2.37
2023-03-23T21:12:25.483Z,2.37
2023-03-23T21:14:52.352Z,2.40
2023-03-23T21:17:19.163Z,2.37
2023-03-23T21:19:49.231Z,2.87
2023-03-23T21:22:18.387Z,2.37
2023-03-23T21:24:46.485Z,2.60
2023-03-23T21:27:13.309Z,2.30
2023-03-23T21:29:42.752Z,2.87
2023-03-23T21:32:09.963Z,2.80
2023-03-23T21:34:37.844Z,2.30
2023-03-23T21:37:04.969Z,2.17
2023-03-23T21:39:31.797Z,2.50
2023-03-23T21:42:00.603Z,2.67
2023-03-23T21:44:27.285Z,1.90
2023-03-23T21:46:54.426Z,1.90
2023-03-23T21:49:21.431Z,2.10
2023-03-23T21:51:49.502Z,2.87
2023-03-23T21:54:16.338Z,2.80
2023-03-23T21:56:43.190Z,2.10
2023-03-23T21:59:10.342Z,1.80
2023-03-23T22:01:37.461Z,2.10
2023-03-23T22:04:04.765Z,1.80
2023-03-23T22:06:34.328Z,1.80
2023-03-23T22:09:05.213Z,1.83
2023-03-23T22:11:32.767Z,1.80
2023-03-23T22:14:00.258Z,2.10
2023-03-23T22:16:27.200Z,2.50
2023-03-23T22:18:55.448Z,2.23
2023-03-23T22:21:25.945Z,2.00
2023-03-23T22:23:55.276Z,2.43
2023-03-23T22:26:22.630Z,2.10
2023-03-23T22:28:50.993Z,1.97
2023-03-23T22:31:21.688Z,2.03
2023-03-23T22:33:55.041Z,2.33
2023-03-23T22:36:23.659Z,1.90
2023-03-23T22:38:51.500Z,1.93
2023-03-23T22:41:21.769Z,2.10
2023-03-23T22:43:48.616Z,2.13
2023-03-23T22:46:16.213Z,1.80
2023-03-23T22:48:43.497Z,2.00
2023-03-23T22:51:15.337Z,1.70
2023-03-23T22:53:42.299Z,1.93
2023-03-23T22:56:09.609Z,2.40
2023-03-23T22:58:36.597Z,1.77
2023-03-23T23:01:13.825Z,2.07
2023-03-23T23:03:40.981Z,2.00
2023-03-23T23:06:08.271Z,1.80
2023-03-23T23:08:35.178Z,1.90
2023-03-23T23:11:03.670Z,2.07
2023-03-23T23:13:31.941Z,2.00
2023-03-23T23:16:02.145Z,2.23
2023-03-23T23:18:33.433Z,2.63
2023-03-23T23:21:01.908Z,2.03
2023-03-23T23:23:31.942Z,2.13
2023-03-23T23:25:58.681Z,2.10
2023-03-23T23:28:26.699Z,2.13
2023-03-23T23:30:54.361Z,1.80
2023-03-23T23:33:22.190Z,2.00
2023-03-23T23:35:49.721Z,2.23
2023-03-23T23:38:20.186Z,1.90
2023-03-23T23:40:47.766Z,1.67
2023-03-23T23:43:16.158Z,2.23
2023-03-23T23:45:44.026Z,2.23
2023-03-23T23:48:11.496Z,2.00
2023-03-23T23:50:38.517Z,2.20
2023-03-23T23:53:05.327Z,2.10
2023-03-23T23:55:32.666Z,2.03
2023-03-23T23:57:59.905Z,1.90
